createdAt,value
2018-02-11T00:02:19.026Z,90.77
2018-02-11T00:04:46.654Z,82.53
2018-02-11T00:07:14.230Z,85.90
2018-02-11T00:09:41.815Z,87.80
2018-02-11T00:12:09.398Z,86.50
2018-02-11T00:14:36.985Z,74.27
2018-02-11T00:17:04.671Z,99.60
2018-02-11T00:19:32.255Z,80.73
2018-02-11T00:21:59.847Z,85.10
2018-02-11T00:24:27.450Z,81.83
2018-02-11T00:26:55.037Z,81.90
2018-02-11T00:29:22.714Z,88.33
2018-02-11T00:31:50.310Z,87.28
2018-02-11T00:34:17.890Z,82.03
2018-02-11T00:36:51.130Z,87.20
2018-02-11T00:39:18.718Z,77.60
2018-02-11T00:41:46.300Z,84.90
2018-02-11T00:44:13.877Z,65.77
2018-02-11T00:46:41.454Z,73.10
2018-02-11T00:49:09.031Z,82.67
2018-02-11T00:51:36.614Z,90.00
2018-02-11T00:54:04.257Z,72.00
2018-02-11T00:56:31.850Z,67.72
2018-02-11T00:58:59.483Z,80.37
2018-02-11T01:01:27.063Z,76.50
2018-02-11T01:03:54.752Z,70.57
2018-02-11T01:06:22.338Z,66.70
2018-02-11T01:08:49.922Z,74.40
2018-02-11T01:11:17.541Z,92.37
2018-02-11T01:13:45.125Z,78.13
2018-02-11T01:16:12.786Z,87.57
2018-02-11T01:18:40.474Z,69.17
2018-02-11T01:21:08.050Z,74.33
2018-02-11T01:23:35.631Z,76.63
2018-02-11T01:26:03.219Z,81.60
2018-02-11T01:28:30.806Z,84.20
2018-02-11T01:30:58.378Z,76.30
2018-02-11T01:33:25.958Z,82.83
2018-02-11T01:35:53.546Z,84.40
2018-02-11T01:38:21.134Z,81.90
2018-02-11T01:40:48.714Z,86.37
2018-02-11T01:43:16.338Z,81.25
2018-02-11T01:45:43.935Z,94.75
2018-02-11T01:48:11.579Z,79.97
2018-02-11T01:50:39.167Z,96.95
2018-02-11T01:53:06.757Z,88.10
2018-02-11T01:55:34.331Z,71.57
2018-02-11T01:58:01.914Z,93.47
2018-02-11T02:00:29.509Z,80.30
2018-02-11T02:02:57.094Z,72.23
2018-02-11T02:05:24.689Z,93.35
2018-02-11T02:07:52.284Z,72.37
2018-02-11T02:10:19.967Z,92.00
2018-02-11T02:12:47.631Z,97.20
2018-02-11T02:15:15.213Z,77.00
2018-02-11T02:17:42.800Z,77.85
2018-02-11T02:20:10.442Z,91.10
2018-02-11T02:22:38.038Z,89.65
2018-02-11T02:25:05.835Z,81.43
2018-02-11T02:27:33.507Z,97.78
2018-02-11T02:30:01.100Z,98.53
2018-02-11T02:32:28.694Z,90.68
2018-02-11T02:34:56.386Z,92.35
2018-02-11T02:37:24.089Z,85.57
2018-02-11T02:39:52.073Z,106.87
2018-02-11T02:42:19.698Z,85.80
2018-02-11T02:44:47.383Z,98.37
2018-02-11T02:47:14.971Z,83.15
2018-02-11T02:49:42.559Z,82.15
2018-02-11T02:52:10.154Z,79.00
2018-02-11T02:54:37.746Z,89.45
2018-02-11T02:57:05.390Z,93.20
2018-02-11T02:59:32.979Z,101.73
2018-02-11T03:02:00.609Z,93.85
2018-02-11T03:04:28.395Z,90.12
2018-02-11T03:06:56.160Z,96.43
2018-02-11T03:09:23.741Z,89.67
2018-02-11T03:11:51.327Z,85.28
2018-02-11T03:14:18.925Z,92.47
2018-02-11T03:16:46.514Z,80.28
2018-02-11T03:19:14.156Z,102.10
2018-02-11T03:21:41.788Z,99.13
2018-02-11T03:24:09.369Z,88.63
2018-02-11T03:26:36.950Z,90.73
2018-02-11T03:29:04.574Z,86.78
2018-02-11T03:31:32.171Z,96.37
2018-02-11T03:33:59.745Z,78.40
2018-02-11T03:36:27.329Z,99.23
2018-02-11T03:38:54.910Z,86.67
2018-02-11T03:41:22.493Z,86.20
2018-02-11T03:43:50.106Z,86.07
2018-02-11T03:46:17.727Z,84.87
2018-02-11T03:48:45.311Z,84.10
2018-02-11T03:51:12.898Z,86.37
2018-02-11T03:53:40.487Z,84.07
2018-02-11T03:56:08.144Z,100.53
2018-02-11T03:58:35.735Z,90.55
2018-02-11T04:01:03.323Z,88.50
2018-02-11T04:03:30.905Z,86.93
2018-02-11T04:05:58.484Z,93.33
2018-02-11T04:08:26.078Z,93.10
2018-02-11T04:10:53.659Z,92.90
2018-02-11T04:13:21.273Z,82.95
2018-02-11T04:15:48.931Z,97.25
2018-02-11T04:18:16.528Z,93.87
2018-02-11T04:20:44.114Z,78.50
2018-02-11T04:23:11.703Z,114.37
2018-02-11T04:25:39.283Z,99.23
2018-02-11T04:28:06.866Z,94.72
2018-02-11T04:30:34.455Z,93.10
2018-02-11T04:33:02.093Z,100.32
2018-02-11T04:35:29.675Z,99.27
2018-02-11T04:37:57.275Z,103.40
2018-02-11T04:40:24.979Z,98.50
2018-02-11T04:42:52.613Z,93.35
2018-02-11T04:45:20.270Z,91.07
2018-02-11T04:47:47.971Z,101.75
2018-02-11T04:50:15.595Z,100.28
2018-02-11T04:52:43.189Z,91.78
2018-02-11T04:55:10.934Z,87.33
2018-02-11T04:57:38.548Z,75.90
2018-02-11T05:00:06.126Z,96.30
2018-02-11T05:02:33.743Z,85.47
2018-02-11T05:05:01.334Z,87.37
2018-02-11T05:07:28.919Z,99.18
2018-02-11T05:09:56.544Z,107.30
2018-02-11T05:12:24.117Z,92.63
2018-02-11T05:14:51.703Z,105.23
2018-02-11T05:17:19.275Z,97.83
2018-02-11T05:19:46.866Z,93.22
2018-02-11T05:22:14.450Z,111.33
2018-02-11T05:24:42.099Z,90.07
2018-02-11T05:27:09.682Z,99.53
2018-02-11T05:29:37.273Z,86.30
2018-02-11T05:32:04.942Z,89.67
2018-02-11T05:34:32.604Z,92.13
2018-02-11T05:37:00.192Z,84.20
2018-02-11T05:39:27.776Z,91.33
2018-02-11T05:41:55.394Z,74.73
2018-02-11T05:44:22.980Z,96.93
2018-02-11T05:46:50.554Z,95.53
2018-02-11T05:49:18.140Z,85.95
2018-02-11T05:51:45.726Z,83.15
2018-02-11T05:54:13.302Z,94.10
2018-02-11T05:56:40.877Z,81.90
2018-02-11T05:59:08.455Z,82.50
2018-02-11T06:01:36.039Z,87.30
2018-02-11T06:04:03.626Z,83.37
2018-02-11T06:06:31.222Z,84.30
2018-02-11T06:08:58.810Z,83.50
2018-02-11T06:11:26.392Z,74.00
2018-02-11T06:13:53.983Z,83.07
2018-02-11T06:16:21.569Z,89.90
2018-02-11T06:18:49.199Z,90.60
2018-02-11T06:21:16.878Z,88.33
2018-02-11T06:23:45.082Z,91.93
2018-02-11T06:26:12.670Z,91.95
2018-02-11T06:28:40.325Z,81.75
2018-02-11T06:31:07.929Z,90.68
2018-02-11T06:33:35.532Z,91.80
2018-02-11T06:36:03.123Z,62.88
2018-02-11T06:38:30.707Z,84.87
2018-02-11T06:40:58.278Z,76.30
2018-02-11T06:43:25.860Z,77.93
2018-02-11T06:45:53.441Z,76.50
2018-02-11T06:48:21.028Z,80.45
2018-02-11T06:50:48.727Z,76.72
2018-02-11T06:53:16.306Z,70.83
2018-02-11T06:55:43.883Z,68.93
2018-02-11T06:58:11.460Z,65.97
2018-02-11T07:00:39.038Z,66.87
2018-02-11T07:03:06.618Z,61.80
2018-02-11T07:05:34.195Z,68.57
2018-02-11T07:08:01.893Z,61.60
2018-02-11T07:10:29.517Z,58.90
2018-02-11T07:12:57.099Z,59.50
2018-02-11T07:15:24.680Z,68.23
2018-02-11T07:17:52.406Z,54.80
2018-02-11T07:20:19.991Z,53.10
2018-02-11T07:22:47.602Z,58.93
2018-02-11T07:25:15.242Z,62.13
2018-02-11T07:27:42.851Z,53.67
2018-02-11T07:30:10.437Z,59.20
2018-02-11T07:32:38.028Z,56.17
2018-02-11T07:35:05.698Z,40.77
2018-02-11T07:37:33.270Z,48.93
2018-02-11T07:40:00.852Z,47.83
2018-02-11T07:42:28.434Z,46.47
2018-02-11T07:44:56.015Z,42.93
2018-02-11T07:47:23.594Z,44.70
2018-02-11T07:49:51.422Z,37.20
2018-02-11T07:52:19.125Z,39.47
2018-02-11T07:54:46.705Z,40.47
2018-02-11T07:57:14.286Z,38.27
2018-02-11T07:59:41.869Z,40.17
2018-02-11T08:02:09.450Z,34.10
2018-02-11T08:04:37.044Z,35.40
2018-02-11T08:07:04.746Z,35.80
2018-02-11T08:09:32.506Z,33.80
2018-02-11T08:12:00.099Z,31.40
2018-02-11T08:14:27.718Z,32.33
2018-02-11T08:16:55.338Z,28.37
2018-02-11T08:19:22.927Z,33.40
2018-02-11T08:21:50.650Z,31.13
2018-02-11T08:24:18.291Z,33.80
2018-02-11T08:26:45.979Z,30.17
2018-02-11T08:29:13.601Z,30.90
2018-02-11T08:31:41.234Z,28.47
2018-02-11T08:34:08.865Z,30.40
2018-02-11T08:36:36.478Z,28.33
2018-02-11T08:39:04.060Z,25.67
2018-02-11T08:41:31.636Z,21.37
2018-02-11T08:43:59.214Z,24.50
2018-02-11T08:46:26.799Z,25.87
2018-02-11T08:48:54.382Z,24.00
2018-02-11T08:51:21.963Z,28.50
2018-02-11T08:53:49.629Z,26.50
2018-02-11T08:56:17.249Z,22.27
2018-02-11T08:58:44.822Z,29.17
2018-02-11T09:01:12.438Z,24.13
2018-02-11T09:03:40.024Z,23.43
2018-02-11T09:06:07.605Z,25.47
2018-02-11T09:08:35.263Z,23.33
2018-02-11T09:11:02.838Z,22.93
2018-02-11T09:13:30.448Z,18.60
2018-02-11T09:15:58.031Z,21.90
2018-02-11T09:18:25.602Z,19.23
2018-02-11T09:20:53.198Z,25.30
2018-02-11T09:23:20.782Z,22.73
2018-02-11T09:25:48.393Z,19.50
2018-02-11T09:28:16.140Z,20.13
2018-02-11T09:30:47.936Z,19.90
2018-02-11T09:33:18.255Z,18.57
2018-02-11T09:35:46.500Z,17.90
2018-02-11T09:38:14.596Z,22.70
2018-02-11T09:40:42.350Z,20.70
2018-02-11T09:43:10.655Z,19.90
2018-02-11T09:45:38.248Z,18.23
2018-02-11T09:48:06.069Z,19.07
2018-02-11T09:50:33.646Z,19.60
2018-02-11T09:53:01.242Z,16.63
2018-02-11T09:55:28.911Z,20.53
2018-02-11T09:57:56.503Z,21.30
2018-02-11T10:00:24.728Z,18.83
2018-02-11T10:02:52.485Z,16.10
2018-02-11T10:05:20.194Z,15.93
2018-02-11T10:07:47.811Z,15.63
2018-02-11T10:10:15.394Z,16.70
2018-02-11T10:12:42.963Z,17.33
2018-02-11T10:15:10.588Z,14.10
2018-02-11T10:17:39.328Z,19.87
2018-02-11T10:20:06.903Z,20.87
2018-02-11T10:22:34.552Z,18.03
2018-02-11T10:25:02.127Z,11.83
2018-02-11T10:27:29.720Z,14.23
2018-02-11T10:29:57.298Z,14.37
2018-02-11T10:32:24.906Z,15.33
2018-02-11T10:34:52.475Z,15.93
2018-02-11T10:37:20.166Z,15.67
2018-02-11T10:39:47.882Z,15.00
2018-02-11T10:42:15.495Z,13.40
2018-02-11T10:44:43.058Z,16.20
2018-02-11T10:47:10.635Z,16.83
2018-02-11T10:49:38.774Z,13.33
2018-02-11T10:52:07.019Z,13.10
2018-02-11T10:54:34.655Z,13.43
2018-02-11T10:57:02.293Z,11.33
2018-02-11T10:59:30.805Z,13.07
2018-02-11T11:01:58.383Z,12.73
2018-02-11T11:04:25.978Z,9.53
2018-02-11T11:06:55.365Z,9.67
2018-02-11T11:09:23.067Z,9.70
2018-02-11T11:11:50.691Z,11.60
2018-02-11T11:14:18.311Z,13.60
2018-02-11T11:16:45.959Z,12.40
2018-02-11T11:19:13.530Z,13.67
2018-02-11T11:21:41.106Z,10.90
2018-02-11T11:24:08.678Z,9.00
2018-02-11T11:26:36.291Z,11.20
2018-02-11T11:29:03.867Z,15.37
2018-02-11T11:31:31.496Z,13.37
2018-02-11T11:33:59.103Z,9.90
2018-02-11T11:36:26.719Z,11.77
2018-02-11T11:38:54.287Z,15.10
2018-02-11T11:41:21.890Z,10.40
2018-02-11T11:43:49.474Z,10.63
2018-02-11T11:46:17.091Z,12.73
2018-02-11T11:48:44.702Z,9.23
2018-02-11T11:51:12.275Z,11.93
2018-02-11T11:53:39.886Z,12.40
2018-02-11T11:56:07.467Z,13.50
2018-02-11T11:58:35.054Z,12.63
2018-02-11T12:01:02.686Z,10.80
2018-02-11T12:03:30.337Z,13.17
2018-02-11T12:05:57.980Z,13.23
2018-02-11T12:08:25.674Z,13.67
2018-02-11T12:10:53.248Z,15.07
2018-02-11T12:13:20.822Z,10.03
2018-02-11T12:15:48.431Z,10.83
2018-02-11T12:18:16.047Z,12.17
2018-02-11T12:20:43.655Z,10.03
2018-02-11T12:23:11.261Z,10.87
2018-02-11T12:25:38.827Z,12.90
2018-02-11T12:28:06.395Z,13.33
2018-02-11T12:30:34.062Z,9.17
2018-02-11T12:33:01.642Z,10.53
2018-02-11T12:35:29.227Z,11.87
2018-02-11T12:37:56.870Z,15.43
2018-02-11T12:40:24.438Z,9.50
2018-02-11T12:42:52.011Z,10.70
2018-02-11T12:45:19.587Z,10.53
2018-02-11T12:47:47.222Z,11.17
2018-02-11T12:50:15.118Z,10.63
2018-02-11T12:52:42.755Z,9.57
2018-02-11T12:55:10.330Z,26.83
2018-02-11T12:57:37.974Z,9.80
2018-02-11T13:00:05.588Z,10.20
2018-02-11T13:02:33.157Z,12.40
2018-02-11T13:05:01.290Z,10.27
2018-02-11T13:07:28.863Z,10.40
2018-02-11T13:09:56.494Z,12.63
2018-02-11T13:12:24.112Z,15.80
2018-02-11T13:14:51.682Z,14.03
2018-02-11T13:17:19.255Z,13.30
2018-02-11T13:19:46.831Z,12.27
2018-02-11T13:22:15.289Z,12.70
2018-02-11T13:24:44.957Z,13.27
2018-02-11T13:27:13.258Z,11.93
2018-02-11T13:29:40.838Z,13.47
2018-02-11T13:32:08.452Z,17.13
2018-02-11T13:34:36.103Z,15.07
2018-02-11T13:37:03.759Z,14.70
2018-02-11T13:39:32.109Z,15.60
2018-02-11T13:41:59.744Z,12.00
2018-02-11T13:44:27.319Z,17.40
2018-02-11T13:46:54.936Z,20.57
2018-02-11T13:49:22.639Z,14.93
2018-02-11T13:51:50.259Z,14.77
2018-02-11T13:54:17.859Z,17.03
2018-02-11T13:56:45.437Z,15.80
2018-02-11T13:59:13.098Z,15.73
2018-02-11T14:01:40.799Z,16.50
2018-02-11T14:04:08.490Z,20.37
2018-02-11T14:06:36.126Z,17.30
2018-02-11T14:09:03.740Z,20.93
2018-02-11T14:11:31.314Z,19.60
2018-02-11T14:13:58.928Z,16.40
2018-02-11T14:16:26.504Z,21.50
2018-02-11T14:18:54.087Z,14.77
2018-02-11T14:21:21.691Z,18.87
2018-02-11T14:23:49.306Z,17.73
2018-02-11T14:26:16.914Z,15.27
2018-02-11T14:28:44.575Z,18.20
2018-02-11T14:31:12.146Z,21.03
2018-02-11T14:33:39.770Z,17.73
2018-02-11T14:36:07.383Z,19.20
2018-02-11T14:38:34.992Z,16.80
2018-02-11T14:41:02.566Z,19.63
2018-02-11T14:43:30.246Z,17.37
2018-02-11T14:45:57.835Z,18.20
2018-02-11T14:48:25.410Z,19.80
2018-02-11T14:50:53.000Z,16.77
2018-02-11T14:53:20.611Z,19.63
2018-02-11T14:55:48.193Z,20.00
2018-02-11T14:58:16.948Z,16.57
2018-02-11T15:00:44.571Z,26.90
2018-02-11T15:03:12.687Z,21.57
2018-02-11T15:05:40.344Z,21.83
2018-02-11T15:08:08.007Z,21.03
2018-02-11T15:10:35.623Z,26.30
2018-02-11T15:13:03.194Z,25.60
2018-02-11T15:15:30.813Z,24.90
2018-02-11T15:17:58.552Z,30.80
2018-02-11T15:20:26.183Z,29.83
2018-02-11T15:22:54.146Z,27.40
2018-02-11T15:25:21.822Z,24.67
2018-02-11T15:27:49.683Z,25.90
2018-02-11T15:30:17.384Z,24.80
2018-02-11T15:32:45.000Z,28.07
2018-02-11T15:35:12.584Z,28.40
2018-02-11T15:37:40.195Z,25.87
2018-02-11T15:40:07.779Z,27.17
2018-02-11T15:42:35.394Z,29.40
2018-02-11T15:45:02.975Z,25.47
2018-02-11T15:47:30.591Z,27.10
2018-02-11T15:49:58.894Z,31.90
2018-02-11T15:52:26.589Z,26.13
2018-02-11T15:54:54.171Z,26.13
2018-02-11T15:57:21.779Z,27.40
2018-02-11T15:59:49.354Z,23.50
2018-02-11T16:02:17.001Z,22.23
2018-02-11T16:04:44.583Z,23.00
2018-02-11T16:07:12.169Z,22.77
2018-02-11T16:09:39.750Z,28.67
2018-02-11T16:12:07.466Z,21.67
2018-02-11T16:14:37.129Z,26.57
2018-02-11T16:17:05.685Z,26.87
2018-02-11T16:19:34.214Z,25.90
2018-02-11T16:22:01.837Z,24.37
2018-02-11T16:24:30.163Z,29.20
2018-02-11T16:27:00.761Z,30.40
2018-02-11T16:29:33.491Z,32.17
2018-02-11T16:32:01.216Z,29.03
2018-02-11T16:34:28.831Z,25.63
2018-02-11T16:36:56.408Z,28.53
2018-02-11T16:39:24.055Z,28.33
2018-02-11T16:41:51.719Z,25.10
2018-02-11T16:44:19.359Z,25.40
2018-02-11T16:46:46.997Z,30.70
2018-02-11T16:49:14.594Z,25.17
2018-02-11T16:51:42.171Z,30.90
2018-02-11T16:54:09.984Z,29.80
2018-02-11T16:56:37.566Z,22.17
2018-02-11T16:59:05.146Z,25.73
2018-02-11T17:01:32.746Z,26.10
2018-02-11T17:04:00.344Z,24.30
2018-02-11T17:06:28.158Z,24.10
2018-02-11T17:08:55.747Z,20.90
2018-02-11T17:11:23.324Z,23.67
2018-02-11T17:13:50.935Z,21.23
2018-02-11T17:16:18.520Z,24.03
2018-02-11T17:18:46.291Z,31.30
2018-02-11T17:21:13.866Z,20.40
2018-02-11T17:23:41.482Z,20.17
2018-02-11T17:26:09.277Z,17.83
2018-02-11T17:28:36.962Z,25.93
2018-02-11T17:31:04.570Z,22.73
2018-02-11T17:33:32.227Z,22.40
2018-02-11T17:36:00.227Z,20.17
2018-02-11T17:38:27.816Z,32.80
2018-02-11T17:40:55.399Z,17.77
2018-02-11T17:43:23.118Z,27.00
2018-02-11T17:45:50.698Z,25.03
2018-02-11T17:48:18.479Z,26.17
2018-02-11T17:50:46.103Z,21.57
2018-02-11T17:53:13.679Z,23.80
2018-02-11T17:55:41.255Z,23.60
2018-02-11T17:58:08.832Z,27.30
2018-02-11T18:00:36.671Z,22.60
2018-02-11T18:03:04.727Z,25.73
2018-02-11T18:05:32.622Z,23.70
2018-02-11T18:08:02.551Z,20.63
2018-02-11T18:10:30.378Z,18.40
2018-02-11T18:12:58.126Z,24.40
2018-02-11T18:15:25.915Z,19.70
2018-02-11T18:17:53.573Z,21.17
2018-02-11T18:20:21.163Z,18.80
2018-02-11T18:22:48.788Z,22.40
2018-02-11T18:25:16.640Z,15.60
2018-02-11T18:27:44.398Z,19.43
2018-02-11T18:30:11.982Z,18.40
2018-02-11T18:32:39.698Z,15.87
2018-02-11T18:35:07.292Z,22.67
2018-02-11T18:37:35.044Z,19.93
2018-02-11T18:40:02.750Z,21.43
2018-02-11T18:42:30.339Z,14.27
2018-02-11T18:44:58.047Z,16.37
2018-02-11T18:47:25.860Z,20.77
2018-02-11T18:49:54.733Z,23.27
2018-02-11T18:52:22.435Z,14.13
2018-02-11T18:54:50.007Z,19.90
2018-02-11T18:57:17.620Z,14.17
2018-02-11T18:59:45.483Z,19.20
2018-02-11T19:02:13.396Z,15.40
2018-02-11T19:04:41.028Z,15.80
2018-02-11T19:07:08.719Z,25.93
2018-02-11T19:09:36.467Z,15.50
2018-02-11T19:12:04.312Z,14.80
2018-02-11T19:14:31.964Z,16.10
2018-02-11T19:16:59.575Z,19.40
2018-02-11T19:19:27.401Z,11.40
2018-02-11T19:21:55.019Z,14.83
2018-02-11T19:24:22.665Z,18.10
2018-02-11T19:26:50.286Z,12.80
2018-02-11T19:29:18.134Z,14.73
2018-02-11T19:31:45.719Z,13.00
2018-02-11T19:34:13.424Z,12.40
2018-02-11T19:36:41.135Z,12.90
2018-02-11T19:39:08.901Z,16.10
2018-02-11T19:41:36.471Z,14.13
2018-02-11T19:44:04.044Z,13.80
2018-02-11T19:46:31.631Z,13.87
2018-02-11T19:48:59.471Z,13.37
2018-02-11T19:51:27.124Z,14.97
2018-02-11T19:53:54.706Z,12.53
2018-02-11T19:56:22.278Z,9.67
2018-02-11T19:58:50.008Z,12.10
2018-02-11T20:01:17.660Z,13.43
2018-02-11T20:03:45.242Z,9.00
2018-02-11T20:06:12.820Z,11.43
2018-02-11T20:08:40.548Z,8.43
2018-02-11T20:11:08.321Z,11.03
2018-02-11T20:13:35.919Z,14.03
2018-02-11T20:16:03.487Z,9.70
2018-02-11T20:18:31.071Z,8.77
2018-02-11T20:20:58.841Z,12.10
2018-02-11T20:23:26.473Z,11.20
2018-02-11T20:25:54.041Z,8.47
2018-02-11T20:28:21.625Z,9.80
2018-02-11T20:30:49.337Z,10.20
2018-02-11T20:33:17.844Z,8.63
2018-02-11T20:35:46.062Z,12.30
2018-02-11T20:38:13.636Z,10.20
2018-02-11T20:40:41.271Z,10.97
2018-02-11T20:43:09.050Z,8.17
2018-02-11T20:45:36.674Z,9.50
2018-02-11T20:48:04.245Z,6.53
2018-02-11T20:50:31.888Z,11.10
2018-02-11T20:52:59.557Z,9.33
2018-02-11T20:55:27.161Z,11.23
2018-02-11T20:57:55.144Z,10.97
2018-02-11T21:00:22.724Z,10.20
2018-02-11T21:02:50.299Z,10.53
2018-02-11T21:05:17.900Z,9.87
2018-02-11T21:07:45.563Z,8.57
2018-02-11T21:10:13.367Z,8.77
2018-02-11T21:12:41.059Z,10.80
2018-02-11T21:15:08.773Z,10.13
2018-02-11T21:17:36.342Z,8.73
2018-02-11T21:20:04.072Z,9.60
2018-02-11T21:22:31.655Z,10.13
2018-02-11T21:24:59.434Z,7.67
2018-02-11T21:27:27.137Z,7.57
2018-02-11T21:29:54.863Z,11.03
2018-02-11T21:32:22.483Z,7.63
2018-02-11T21:34:50.127Z,11.50
2018-02-11T21:37:18.071Z,7.50
2018-02-11T21:39:45.655Z,8.60
2018-02-11T21:42:13.474Z,9.40
2018-02-11T21:44:41.045Z,8.87
2018-02-11T21:47:08.654Z,8.03
2018-02-11T21:49:36.275Z,8.30
2018-02-11T21:52:03.848Z,13.93
2018-02-11T21:54:31.427Z,8.80
2018-02-11T21:56:59.041Z,8.47
2018-02-11T21:59:26.659Z,13.83
2018-02-11T22:01:54.482Z,12.10
2018-02-11T22:04:22.054Z,7.80
2018-02-11T22:06:49.626Z,12.30
2018-02-11T22:09:17.358Z,10.20
2018-02-11T22:11:44.966Z,14.40
2018-02-11T22:14:12.627Z,11.60
2018-02-11T22:16:40.202Z,14.20
2018-02-11T22:19:07.883Z,8.30
2018-02-11T22:21:35.446Z,9.07
2018-02-11T22:24:03.058Z,11.20
2018-02-11T22:26:30.734Z,11.83
2018-02-11T22:28:58.335Z,9.47
2018-02-11T22:31:25.907Z,10.57
2018-02-11T22:33:53.511Z,8.33
2018-02-11T22:36:21.076Z,8.53
2018-02-11T22:38:48.692Z,10.87
2018-02-11T22:41:16.406Z,10.40
2018-02-11T22:43:44.590Z,9.93
2018-02-11T22:46:12.168Z,10.87
2018-02-11T22:48:39.849Z,10.80
2018-02-11T22:51:07.415Z,10.30
2018-02-11T22:53:35.048Z,11.83
2018-02-11T22:56:02.694Z,12.53
2018-02-11T22:58:30.264Z,12.20
2018-02-11T23:00:57.913Z,9.10
2018-02-11T23:05:53.203Z,10.90
2018-02-11T23:08:20.776Z,10.87
2018-02-11T23:10:48.338Z,11.83
2018-02-11T23:13:15.910Z,12.53
2018-02-11T23:15:43.474Z,11.57
2018-02-11T23:18:11.048Z,12.90
2018-02-11T23:20:38.616Z,10.13
2018-02-11T23:23:06.183Z,11.77
2018-02-11T23:25:33.756Z,9.13
2018-02-11T23:28:01.385Z,13.53
2018-02-11T23:30:29.050Z,9.57
2018-02-11T23:32:56.719Z,12.60
2018-02-11T23:35:24.302Z,13.47
2018-02-11T23:37:51.970Z,14.77
2018-02-11T23:40:19.544Z,12.33
2018-02-11T23:42:47.226Z,11.27
2018-02-11T23:45:14.793Z,13.37
2018-02-11T23:47:42.489Z,10.53
2018-02-11T23:50:10.087Z,13.93
2018-02-11T23:52:37.664Z,14.37
2018-02-11T23:55:05.233Z,14.17
2018-02-11T23:57:32.806Z,12.27
